Motte Rimrock Reserve, California Weather observations

Data are for 10 minute period ending at time listed.
 Day   Time   Solar   Ave.   Ave.  Ave.  Vector  Max.   Baro.   Total    
  of    of     Rad.   Air    Rel.  Wind   Wind   Wind  Press.  Precip.   
Year   Day            Temp.  Hum.  Speed  Dir.   Gust                    
2014   (PST)  Kw/m2    F      %     mph   deg.    mph    mb.     in.     
-------------------------------------------------------------------------
 302    8:10   0.34   72.2    24    3.2   124     4.8   950.8    0.00 
 302    8:20   0.37   72.0    23    2.4   127     4.3   950.8    0.00 
 302    8:30   0.40   72.5    20    3.1   109     5.6   950.8    0.00 
 302    8:40   0.43   73.7    18    2.9   123     4.3   950.8    0.00 
 302    8:50   0.46   74.0    17    2.9   113     5.3   950.9    0.00 
 302    9:00   0.49   74.4    17    3.4   120     5.6   950.9    0.00 
 302    9:10   0.51   75.3    18    2.8   108     5.0   950.9    0.00 
 302    9:20   0.54   75.9    19    2.9   109     5.3   950.8    0.00 
 302    9:30   0.56   76.1    18    3.6   110     6.4   950.6    0.00 
 302    9:40   0.58   76.5    16    2.5    80     5.5   950.6    0.00 
 302    9:50   0.60   76.8    15    3.5    85     6.2   950.6    0.00 
 302   10:00   0.62   77.7    16    3.1   149     5.8   950.6    0.00 
 302   10:10   0.64   79.0    16    2.4   155     4.4   950.6    0.00 
 302   10:20   0.66   81.2    15    1.2    54     3.1   950.4    0.00 
 302   10:30   0.67   82.3    14    1.5   240     4.7   950.2    0.00 
 302   10:40   0.68   81.7    14    2.3   195     5.0   950.0    0.00 
 302   10:50   0.69   81.8    14    2.7   188     6.1   949.9    0.00 
 302   11:00   0.70   81.6    13    4.1   232     7.2   949.8    0.00 
 302   11:10   0.70   82.2    13    4.2   271     8.2   949.7    0.00 
 302   11:20   0.72   82.1    12    3.5   283     7.4   949.6    0.00 
 302   11:30   0.72   82.9    12    5.9   259    10.7   949.5    0.00 
 302   11:40   0.72   83.8    11    3.7   327     7.2   949.3    0.00 
 302   11:50   0.72   82.9    12    5.2   307     9.6   949.1    0.00 
 302   12:00   0.72   83.2    11    3.3   323     6.6   948.8    0.00 
 302   12:10   0.71   83.8    11    3.2   269     6.6   948.7    0.00 
 302   12:20   0.70   84.8    11    2.6    25     6.1   948.5    0.00 
 302   12:30   0.69   85.6    11    4.6    39     8.2   948.4    0.00 
 302   12:40   0.68   85.0    11    5.1    61     7.7   948.3    0.00 
 302   12:50   0.67   85.1    11    2.7    29     7.2   948.1    0.00 
 302   13:00   0.66   86.7    10    3.9   344     7.5   948.0    0.00 
 302   13:10   0.64   85.5    11    3.8    68     6.9   947.8    0.00 
 302   13:20   0.62   86.9    10    3.9     1     7.1   947.7    0.00 
 302   13:30   0.60   86.7    10    3.7   359     7.4   947.7    0.00 
 302   13:40   0.59   86.3    10    3.9   300     8.5   947.6    0.00 
 302   13:50   0.54   86.3    10    4.0   359     7.7   947.5    0.00 
 302   14:00   0.54   87.2    10    5.4   327     9.5   947.4    0.00 
 302   14:10   0.51   86.4    11    9.0   303    13.2   947.3    0.00 
 302   14:20   0.48   85.9    11    8.1   323    12.6   947.3    0.00 
 302   14:30   0.46   86.0    11    7.5   307    14.8   947.2    0.00 
 302   14:40   0.43   86.2    11    8.4   290    12.6   947.2    0.00 
 302   14:50   0.40   86.2    11   10.4   308    13.4   947.2    0.00 
 302   15:00   0.37   85.8    11    6.8   304    12.2   947.2    0.00 
 302   15:10   0.34   85.8    11    6.9   289     9.8   947.1    0.00 
 302   15:20   0.30   85.7    11    8.9   315    15.3   947.1    0.00 
 302   15:30   0.27   85.2    12   10.6   310    14.1   947.1    0.00 
 302   15:40   0.24   84.9    12   10.1   313    13.7   947.1    0.00 
 302   15:50   0.20   84.8    12    9.4   305    14.1   947.1    0.00 
 302   16:00   0.17   84.1    13   11.3   315    15.1   947.0    0.00 
 302   16:10   0.13   83.0    15   14.3   309    19.2   947.0    0.00 
 302   16:20   0.10   81.2    21   16.5   298    22.1   947.1    0.00 
 302   16:30   0.08   79.7    25   16.6   300    20.0   947.2    0.00 
 302   16:40   0.05   79.0    28   14.8   299    18.3   947.3    0.00 
 302   16:50   0.03   78.3    29   14.9   298    18.9   947.4    0.00 
 302   17:00   0.01   77.5    31   14.1   300    18.2   947.4    0.00 
 302   17:10   0.01   77.0    31   13.6   301    18.0   947.6    0.00 
 302   17:20   0.00   76.2    33   11.8   304    16.7   947.7    0.00 
 302   17:30   0.00   75.3    36   12.3   306    15.9   947.7    0.00 
 302   17:40   0.00   74.2    37   13.0   305    17.0   947.7    0.00 
 302   17:50   0.00   73.7    36   13.3   306    16.7   947.9    0.00 
 302   18:00   0.00   73.1    37   12.5   302    15.6   948.1    0.00 
 302   18:10   0.00   72.8    36   11.6   300    15.5   948.3    0.00 
 302   18:20   0.00   71.9    37    4.7   278    10.4   948.5    0.00 
 302   18:30   0.00   71.7    36    5.1   114     7.9   948.7    0.00 
 302   18:40   0.00   72.7    34    5.1   316     8.8   948.8    0.00 
 302   18:50   0.00   72.3    33    3.5   328     7.2   948.9    0.00 
 302   19:00   0.00   72.1    33    0.1    13     1.3   949.1    0.00 
 302   19:10   0.00   72.0    34    1.6    59     3.6   949.1    0.00 
 302   19:20   0.00   70.6    42    3.6   103     5.0   949.1    0.00 
 302   19:30   0.00   69.6    45    4.9   106     6.1   949.1    0.00 
 302   19:40   0.00   69.5    44    3.2   100     4.3   949.1    0.00 
 302   19:50   0.00   70.2    42    1.8    68     2.4   949.2    0.00 
 302   20:00   0.00   70.7    42    2.1    38     4.0   949.2    0.00 
 302   20:10   0.00   70.7    43    3.0    12     3.8   949.2    0.00 
 302   20:20   0.00   70.2    45    4.9     5     6.1   949.3    0.00 
 302   20:30   0.00   69.7    47    6.1    12     6.9   949.3    0.00 
 302   20:40   0.00   69.6    48    6.0    25     7.0   949.3    0.00 
 302   20:50   0.00   68.2    49    2.9    94     4.7   949.3    0.00 
 302   21:00   0.00   67.0    52    1.8    16     3.5   949.3    0.00 
 302   21:10   0.00   68.5    50    3.3    29     4.5   949.3    0.00 
 302   21:20   0.00   67.1    52    1.8   229     4.7   949.3    0.00 
 302   21:30   0.00   68.8    48    2.6   360     3.7   949.3    0.00 
 302   21:40   0.00   68.7    48    0.1   339     1.2   949.3    0.00 
 302   21:50   0.00   68.5    49    0.9    74     1.8   949.2    0.00 
 302   22:00   0.00   67.9    50    2.0   156     2.9   949.2    0.00 
 302   22:10   0.00   67.5    51    0.5   177     0.9   949.1    0.00 
 302   22:20   0.00   67.4    51    1.0   266     2.0   949.1    0.00 
 302   22:30   0.00   67.3    51    2.1   285     3.3   949.1    0.00 
 302   22:40   0.00   67.7    47    3.1   344     3.6   949.0    0.00 
 302   22:50   0.00   68.3    47    3.6    13     4.1   949.0    0.00 
 302   23:00   0.00   68.0    48    4.5    20     4.9   948.9    0.00 
 302   23:10   0.00   67.7    50    5.3    18     5.6   948.9    0.00 
 302   23:20   0.00   67.4    51    5.3    20     5.8   948.9    0.00 
 302   23:30   0.00   67.2    52    5.3    20     6.6   948.9    0.00 
 302   23:40   0.00   65.7    53    1.1    53     4.3   948.9    0.00 
 302   23:50   0.00   64.1    57    0.0   227     0.6   949.0    0.00 
 303    0:00   0.00   64.8    56    0.3   158     1.6   948.8    0.00 
 303    0:10   0.00   66.1    54    2.2   118     2.7   948.7    0.00 
 303    0:20   0.00   66.5    52    3.2   134     3.9   948.7    0.00 
 303    0:30   0.00   66.1    52    3.1   122     4.5   948.7    0.00 
 303    0:40   0.00   65.5    53    3.3   140     4.2   948.6    0.00 
 303    0:50   0.00   65.3    53    2.3   158     3.0   948.6    0.00 
 303    1:00   0.00   64.7    55    2.3   157     3.1   948.6    0.00 
 303    1:10   0.00   65.1    54    2.7   135     3.3   948.6    0.00 
 303    1:20   0.00   64.6    55    2.2   215     2.9   948.7    0.00 
 303    1:30   0.00   64.0    56    1.8   298     3.3   948.5    0.00 
 303    1:40   0.00   65.4    53    2.0    50     3.6   948.5    0.00 
 303    1:50   0.00   64.2    55    2.4    44     3.7   948.4    0.00 
 303    2:00   0.00   62.6    58    3.9   337     5.4   948.4    0.00 
 303    2:10   0.00   63.6    54    3.7   317     5.0   948.3    0.00 
 303    2:20   0.00   62.7    52    6.0   332     8.3   948.2    0.00 
 303    2:30   0.00   61.2    57    7.8   330     8.8   948.1    0.00 
 303    2:40   0.00   60.4    60    7.2   330     9.3   948.0    0.00 
 303    2:50   0.00   60.0    63    7.7   325     9.0   947.9    0.00 
 303    3:00   0.00   60.1    63    6.6   317     8.3   947.8    0.00 
 303    3:10   0.00   60.8    62    6.0   325     7.2   947.7    0.00 
 303    3:20   0.00   60.4    62    5.2   320     6.3   947.7    0.00 
 303    3:30   0.00   60.7    61    4.9   323     6.1   947.7    0.00 
 303    3:40   0.00   61.7    59    3.8   318     4.7   947.8    0.00 
 303    3:50   0.00   62.0    59    3.2   309     3.9   947.8    0.00 
 303    4:00   0.00   62.4    58    3.1   303     3.8   947.8    0.00 
 303    4:10   0.00   64.1    52    2.0   309     3.3   947.8    0.00 
 303    4:20   0.00   65.4    46    1.0   316     1.8   947.9    0.00 
 303    4:30   0.00   65.4    47    1.5   336     2.3   948.0    0.00 
 303    4:40   0.00   64.8    49    1.7    28     2.4   948.1    0.00 
 303    4:50   0.00   63.2    54    1.2    34     2.4   948.0    0.00 
 303    5:00   0.00   62.8    56    3.8    34     5.1   948.0    0.00 
 303    5:10   0.00   62.2    58    4.0    48     4.5   948.1    0.00 
 303    5:20   0.00   61.8    60    2.4    57     4.1   948.2    0.00 
 303    5:30   0.00   60.5    62    1.8    64     3.1   948.1    0.00 
 303    5:40   0.00   60.9    62    2.7    56     3.8   948.0    0.00 
 303    5:50   0.00   60.5    64    4.1    46     4.5   947.9    0.00 
 303    6:00   0.00   60.4    64    2.5    47     3.9   948.0    0.00 
 303    6:10   0.00   59.5    66    0.2    35     0.6   948.0    0.00 
 303    6:20   0.00   59.6    66    0.7   296     1.5   947.9    0.00 
 303    6:30   0.02   60.0    64    1.7   261     2.8   947.9    0.00 
 303    6:40   0.03   60.2    59    0.5   246     1.6   947.9    0.00 
 303    6:50   0.07   61.3    60    0.7   147     2.0   948.0    0.00 
 303    7:00   0.09   62.6    58    1.0   184     2.0   948.0    0.00 
 303    7:10   0.13   63.0    56    2.4   228     2.9   948.2    0.00 
 303    7:20   0.14   64.1    53    2.4   240     2.8   948.4    0.00 
 303    7:30   0.10   64.0    52    2.4   261     3.1   948.6    0.00 
 303    7:40   0.12   64.5    48    2.8   234     3.6   948.8    0.00 
 303    7:50   0.19   65.8    44    2.4   235     3.3   948.9    0.00 
 303    8:00   0.33   69.2    38    1.3   158     2.4   948.9    0.00 

Return to Motte Rimrock Reserve graphs page.


Western Regional Climate Center,wrcc@dri.edu